Time;durP1;ratioP1;P1;durP2;ratioP2;P2;SDS_P1;SDS_P2;PMS_P1;PMS_P2;Temp;Humidity;BMP_temperature;BMP_pressure;BME280_temperature;BME280_humidity;BME280_pressure;Samples;Min_cycle;Max_cycle;Signal;HPM_P1;HPM_P2
2022/01/20 00:01:45;;;;;;;60.30;24.63;;;;;;;1.51;59.43;100740.66;5015342;28;20044;-73
2022/01/20 00:07:23;;;;;;;57.73;25.23;;;;;;;1.59;58.72;100728.88;5015186;28;20030;-71
2022/01/20 00:28:20;;;;;;;52.47;22.33;;;;;;;1.58;58.46;100716.75;5019620;28;20219;-71
2022/01/20 00:31:02;;;;;;;50.23;22.23;;;;;;;1.73;58.54;100729.91;5016044;28;20054;-71
2022/01/20 00:39:09;;;;;;;46.47;20.05;;;;;;;1.73;57.75;100722.09;5001745;28;20109;-71
2022/01/20 00:41:35;;;;;;;45.80;20.13;;;;;;;1.48;58.97;100704.28;5012672;28;20033;-71
2022/01/20 00:44:00;;;;;;;46.90;19.90;;;;;;;1.75;58.55;100725.47;5015384;28;20054;-73
2022/01/20 00:46:25;;;;;;;49.47;19.23;;;;;;;1.73;58.33;100724.69;5012889;28;20033;-73
2022/01/20 00:48:51;;;;;;;49.33;19.03;;;;;;;1.74;58.47;100716.78;5014947;28;20042;-73
2022/01/20 00:51:16;;;;;;;53.27;20.73;;;;;;;1.60;58.95;100701.00;5015271;28;20029;-73
2022/01/20 00:53:44;;;;;;;67.73;24.13;;;;;;;1.71;58.23;100705.66;5020232;28;20083;-72
2022/01/20 00:56:13;;;;;;;59.77;22.43;;;;;;;1.86;57.92;100710.91;5013401;28;20255;-72
2022/01/20 00:58:38;;;;;;;76.63;24.57;;;;;;;1.92;57.59;100709.72;5018772;28;20336;-72
2022/01/20 01:01:04;;;;;;;61.37;21.47;;;;;;;1.54;57.99;100686.53;4996137;28;20089;-73
2022/01/20 01:03:30;;;;;;;60.60;23.93;;;;;;;1.85;57.75;100700.53;5017321;28;20096;-73
2022/01/20 01:08:53;;;;;;;59.93;23.03;;;;;;;1.69;57.93;100699.66;4982185;28;20050;-73
2022/01/20 01:11:20;;;;;;;55.67;22.33;;;;;;;1.47;58.66;100694.75;5013534;28;20038;-73
2022/01/20 01:13:46;;;;;;;54.07;22.70;;;;;;;1.68;58.46;100693.59;5014566;28;20331;-73
2022/01/20 01:16:13;;;;;;;63.17;24.47;;;;;;;1.81;57.48;100692.03;5019766;28;20034;-73
2022/01/20 01:21:40;;;;;;;78.70;28.45;;;;;;;1.52;57.74;100688.38;5017475;28;20051;-71
2022/01/20 01:24:06;;;;;;;57.70;23.25;;;;;;;1.42;57.78;100666.28;5023898;28;20068;-71
2022/01/20 01:26:31;;;;;;;73.40;27.33;;;;;;;1.31;58.07;100652.97;5009372;28;20327;-72
2022/01/20 01:28:58;;;;;;;48.23;21.43;;;;;;;1.05;57.92;100661.31;5005681;28;20046;-72
2022/01/20 01:34:00;;;;;;;36.50;17.47;;;;;;;0.20;59.37;100667.25;5015633;28;20042;-73
2022/01/20 01:36:28;;;;;;;42.42;16.80;;;;;;;-0.16;60.55;100662.00;5024419;28;20053;-71
2022/01/20 01:38:54;;;;;;;35.07;16.43;;;;;;;-0.40;61.76;100653.59;5022200;28;20109;-73
2022/01/20 01:41:30;;;;;;;37.50;15.80;;;;;;;-0.50;63.35;100652.31;4994151;28;20060;-72
2022/01/20 01:43:56;;;;;;;42.83;17.83;;;;;;;-0.76;63.82;100639.66;5015609;28;20124;-72
2022/01/20 01:46:23;;;;;;;39.77;17.93;;;;;;;-0.63;64.11;100658.16;5002564;28;20029;-71
2022/01/20 01:48:49;;;;;;;41.30;18.17;;;;;;;-0.52;63.39;100654.16;5023988;28;20306;-71
2022/01/20 01:51:15;;;;;;;36.57;16.47;;;;;;;-0.45;63.15;100655.56;5003202;28;20273;-73
2022/01/20 01:53:41;;;;;;;41.47;17.70;;;;;;;-0.24;62.64;100650.28;5018864;28;20040;-73
2022/01/20 01:56:07;;;;;;;41.33;18.23;;;;;;;-0.18;62.10;100644.78;5020749;28;20046;-71
2022/01/20 01:58:33;;;;;;;40.27;18.07;;;;;;;-0.14;62.36;100654.97;5023549;28;20026;-71
2022/01/20 02:00:58;;;;;;;48.40;18.03;;;;;;;-0.22;61.77;100636.28;5019290;28;20037;-73
2022/01/20 02:03:24;;;;;;;38.67;16.63;;;;;;;-0.33;62.53;100636.78;5017659;28;20334;-73
2022/01/20 02:08:35;;;;;;;45.43;17.20;;;;;;;-1.22;65.59;100659.81;5017270;28;20316;-71
2022/01/20 02:19:15;;;;;;;47.43;17.90;;;;;;;-1.61;68.12;100641.56;5023425;28;20147;-71
2022/01/20 02:21:51;;;;;;;62.23;18.63;;;;;;;-1.74;69.58;100640.38;5021675;28;20026;-72
2022/01/20 02:24:17;;;;;;;52.63;20.73;;;;;;;-1.71;69.44;100628.09;5015280;28;20068;-72
2022/01/20 02:26:43;;;;;;;69.80;26.03;;;;;;;-1.48;68.23;100626.31;5010767;28;20022;-72
2022/01/20 02:29:09;;;;;;;71.50;33.27;;;;;;;-1.54;68.51;100626.56;5001268;28;20018;-72
2022/01/20 02:31:34;;;;;;;79.30;36.97;;;;;;;-1.51;69.28;100616.03;5017318;28;20068;-71
2022/01/20 02:34:00;;;;;;;77.20;34.17;;;;;;;-1.34;68.23;100616.16;5002126;28;20034;-71
2022/01/20 02:36:27;;;;;;;55.53;21.10;;;;;;;-1.27;68.03;100607.19;4999419;28;20026;-72
2022/01/20 02:38:58;;;;;;;48.63;20.13;;;;;;;-1.33;67.45;100564.13;5018768;28;20022;-73
2022/01/20 02:46:52;;;;;;;47.00;18.13;;;;;;;-0.80;65.36;100592.13;5017641;28;21546;-72
2022/01/20 02:49:18;;;;;;;41.07;18.00;;;;;;;-0.62;64.90;100595.66;4999761;28;20049;-73
2022/01/20 02:51:51;;;;;;;115.80;28.57;;;;;;;-0.86;65.88;100600.22;5014208;28;20042;-73
2022/01/20 02:54:18;;;;;;;46.97;19.88;;;;;;;-0.92;66.68;100584.88;5016418;28;20041;-71
2022/01/20 02:56:43;;;;;;;49.97;19.60;;;;;;;-0.89;66.40;100576.94;4992192;28;20034;-72
2022/01/20 02:59:09;;;;;;;48.93;18.37;;;;;;;-0.89;66.21;100584.75;5002941;28;20324;-72
2022/01/20 03:01:35;;;;;;;45.20;18.17;;;;;;;-0.88;66.44;100575.19;5010993;28;20319;-72
2022/01/20 03:04:02;;;;;;;47.63;17.63;;;;;;;-0.69;66.35;100582.09;5019949;28;20092;-71
2022/01/20 03:06:27;;;;;;;56.43;22.53;;;;;;;-0.47;64.68;100588.88;5022773;28;20033;-71
2022/01/20 03:08:53;;;;;;;58.13;19.40;;;;;;;-0.48;64.40;100584.59;5019273;28;20046;-73
2022/01/20 03:11:18;;;;;;;51.90;20.67;;;;;;;-0.35;63.97;100581.34;5021293;28;20073;-73
2022/01/20 03:13:44;;;;;;;45.53;19.57;;;;;;;-0.40;63.36;100583.31;5022977;28;20349;-73
2022/01/20 03:16:09;;;;;;;46.47;20.20;;;;;;;-0.56;63.82;100577.16;5017370;28;20217;-71
2022/01/20 03:18:35;;;;;;;56.40;21.87;;;;;;;-0.59;64.30;100574.69;4991248;28;20137;-71
2022/01/20 03:21:00;;;;;;;41.03;19.70;;;;;;;-0.59;63.70;100563.44;5016941;28;20362;-73
2022/01/20 03:23:26;;;;;;;130.43;36.27;;;;;;;-0.59;64.33;100574.69;5015884;28;20037;-73
2022/01/20 03:25:51;;;;;;;86.40;25.97;;;;;;;-0.72;63.77;100555.38;5016008;28;20032;-73
2022/01/20 03:28:16;;;;;;;50.63;21.03;;;;;;;-0.48;63.06;100572.44;5016431;28;20022;-73
2022/01/20 03:30:42;;;;;;;41.60;18.33;;;;;;;-0.45;61.84;100574.91;5015503;28;20041;-71
2022/01/20 03:33:08;;;;;;;43.57;19.17;;;;;;;-0.69;62.48;100571.69;5017220;28;20358;-71
2022/01/20 03:35:33;;;;;;;41.40;18.10;;;;;;;-0.59;62.28;100569.50;4997851;28;20377;-72
2022/01/20 03:37:59;;;;;;;45.97;18.80;;;;;;;-0.77;62.97;100560.78;5016481;28;20022;-73
2022/01/20 03:40:24;;;;;;;50.67;19.07;;;;;;;-0.85;62.94;100560.28;4992945;28;20030;-71
2022/01/20 03:42:50;;;;;;;56.73;19.30;;;;;;;-0.99;62.71;100545.31;5013708;28;20026;-71
2022/01/20 03:45:15;;;;;;;44.40;17.27;;;;;;;-1.01;62.53;100564.50;5015585;28;20041;-72
2022/01/20 03:47:42;;;;;;;41.17;17.00;;;;;;;-1.45;63.23;100571.63;5021674;28;20026;-72
2022/01/20 03:50:59;;;;;;;40.03;17.07;;;;;;;-1.71;64.68;100570.97;5016338;28;20045;-71
2022/01/20 03:52:54;;;;;;;40.47;16.93;;;;;;;-1.68;65.60;100576.03;5015375;28;20354;-71
2022/01/20 03:55:19;;;;;;;38.10;18.00;;;;;;;-1.48;64.73;100572.59;5014562;28;20034;-72
2022/01/20 03:57:44;;;;;;;43.80;19.10;;;;;;;-1.40;63.84;100569.66;5016569;28;20029;-73
2022/01/20 04:00:10;;;;;;;41.20;17.47;;;;;;;-1.40;64.27;100567.91;4998072;28;20026;-72
2022/01/20 04:02:36;;;;;;;36.07;16.20;;;;;;;-1.41;64.54;100573.19;5015598;28;20029;-71
2022/01/20 04:05:01;;;;;;;38.80;16.17;;;;;;;-1.35;64.78;100568.56;5015840;28;20649;-71
2022/01/20 04:07:26;;;;;;;37.33;15.90;;;;;;;-1.05;63.12;100562.91;5015087;28;20315;-72
2022/01/20 04:09:52;;;;;;;34.73;14.67;;;;;;;-1.00;62.77;100566.19;5008736;28;20038;-72
2022/01/20 04:12:17;;;;;;;38.07;15.40;;;;;;;-0.94;62.27;100568.50;5014099;28;20208;-71
2022/01/20 04:14:47;;;;;;;39.07;15.30;;;;;;;-0.99;62.65;100562.69;5021479;28;20045;-71
2022/01/20 04:17:18;;;;;;;74.00;20.43;;;;;;;-0.94;62.47;100565.91;5020790;28;20068;-73
2022/01/20 04:19:44;;;;;;;45.87;17.37;;;;;;;-0.90;61.86;100561.41;5012937;28;20034;-73
2022/01/20 04:22:09;;;;;;;36.83;16.40;;;;;;;-1.12;62.13;100538.97;5014048;28;20209;-73
2022/01/20 04:24:37;;;;;;;38.20;16.20;;;;;;;-1.08;62.49;100571.69;4998055;28;20275;-71
2022/01/20 04:27:03;;;;;;;42.83;17.63;;;;;;;-0.90;62.26;100561.41;5015086;28;20030;-71
2022/01/20 04:29:28;;;;;;;48.10;18.57;;;;;;;-0.98;61.37;100546.16;4996983;28;20101;-72
2022/01/20 04:31:54;;;;;;;42.30;16.57;;;;;;;-0.77;59.95;100558.19;5015871;28;20032;-73
2022/01/20 04:34:19;;;;;;;37.57;16.87;;;;;;;-0.70;60.31;100559.59;5019466;28;20029;-73
2022/01/20 04:36:47;;;;;;;42.57;17.33;;;;;;;-0.67;60.69;100564.66;5021096;28;20030;-71
2022/01/20 04:39:17;;;;;;;40.10;17.77;;;;;;;-0.70;60.89;100557.00;5014939;28;20092;-72
2022/01/20 04:41:42;;;;;;;76.23;31.00;;;;;;;-0.60;60.37;100562.59;4998029;28;20105;-73
2022/01/20 04:44:13;;;;;;;55.83;20.87;;;;;;;-1.09;62.17;100567.41;5013944;28;20101;-73
2022/01/20 04:46:47;;;;;;;46.27;19.70;;;;;;;-1.25;62.73;100562.97;5014560;28;20033;-71
2022/01/20 04:57:21;;;;;;;68.40;22.35;;;;;;;-0.61;60.44;100547.91;5017018;28;19950;-71
2022/01/20 04:59:49;;;;;;;65.27;22.77;;;;;;;-0.59;60.33;100551.28;5019790;28;20102;-72
2022/01/20 05:02:15;;;;;;;65.97;23.40;;;;;;;-0.60;60.57;100535.75;5019721;28;20026;-72
2022/01/20 05:04:41;;;;;;;57.63;23.87;;;;;;;-0.51;60.22;100559.56;5018641;28;20049;-73
2022/01/20 05:07:08;;;;;;;59.07;23.80;;;;;;;-0.55;60.19;100550.22;5021416;28;20223;-72
2022/01/20 05:09:35;;;;;;;125.37;47.00;;;;;;;-0.54;60.47;100557.13;5007303;28;20243;-72
2022/01/20 05:12:08;;;;;;;94.53;36.73;;;;;;;-0.69;60.35;100545.66;5022862;28;20065;-72
2022/01/20 05:14:33;;;;;;;77.30;29.97;;;;;;;-0.62;60.57;100555.78;5025693;28;20025;-73
2022/01/20 05:16:59;;;;;;;69.10;25.60;;;;;;;-1.10;61.48;100563.13;5021008;28;20040;-71
2022/01/20 05:19:27;;;;;;;53.23;20.57;;;;;;;-1.15;62.04;100551.25;5019402;28;20030;-71
2022/01/20 05:21:52;;;;;;;44.33;17.53;;;;;;;-1.13;62.59;100554.63;5024668;28;20038;-73
2022/01/20 05:24:18;;;;;;;39.83;17.03;;;;;;;-1.01;62.03;100564.50;5022697;28;20236;-73
2022/01/20 05:26:44;;;;;;;43.30;18.43;;;;;;;-0.89;62.00;100566.53;5002441;28;20037;-73
2022/01/20 05:29:10;;;;;;;53.50;23.63;;;;;;;-1.01;62.03;100557.53;5013882;28;20033;-72
2022/01/20 05:31:35;;;;;;;93.67;32.50;;;;;;;-1.21;62.44;100552.38;5026226;28;20192;-71
2022/01/20 05:34:01;;;;;;;77.30;30.57;;;;;;;-1.11;62.69;100548.44;5025868;28;20033;-73
2022/01/20 05:36:26;;;;;;;55.37;23.00;;;;;;;-1.22;62.81;100542.88;5026008;28;20362;-73
2022/01/20 05:38:52;;;;;;;127.93;49.77;;;;;;;-0.84;62.00;100555.94;5025611;28;20049;-73
2022/01/20 05:41:20;;;;;;;236.33;88.00;;;;;;;-0.56;60.69;100560.72;5008426;28;20029;-72
2022/01/20 05:43:46;;;;;;;251.80;93.63;;;;;;;-0.51;60.75;100556.13;5007699;28;20032;-71
2022/01/20 05:46:14;;;;;;;216.30;89.27;;;;;;;-0.57;61.24;100559.03;5025820;28;20319;-73
2022/01/20 05:48:46;;;;;;;178.43;70.03;;;;;;;-0.65;60.48;100531.59;5007927;28;20420;-72
2022/01/20 05:51:12;;;;;;;137.27;49.50;;;;;;;-0.58;60.96;100558.19;5008070;28;20036;-71
2022/01/20 05:53:37;;;;;;;86.47;33.03;;;;;;;-0.44;60.52;100553.16;5025858;28;20211;-71
2022/01/20 05:56:03;;;;;;;68.27;26.97;;;;;;;-0.31;59.62;100558.63;5008160;28;20029;-72
2022/01/20 05:58:29;;;;;;;62.13;24.37;;;;;;;-0.42;60.21;100551.34;5025371;28;20029;-73
2022/01/20 06:00:55;;;;;;;64.70;22.50;;;;;;;-0.43;60.43;100549.66;5025440;28;20084;-71
2022/01/20 06:03:36;;;;;;;66.30;24.63;;;;;;;-0.50;61.02;100545.66;5025450;28;20034;-71
2022/01/20 06:06:02;;;;;;;62.80;22.93;;;;;;;-0.42;60.51;100532.28;5025384;28;20025;-73
2022/01/20 06:08:28;;;;;;;94.57;27.80;;;;;;;-0.48;59.92;100502.19;5007176;28;20097;-73
2022/01/20 06:10:53;;;;;;;97.80;30.60;;;;;;;-0.24;59.41;100530.56;5025306;28;20096;-73
2022/01/20 06:13:19;;;;;;;120.63;37.43;;;;;;;-0.63;61.06;100530.69;5025303;28;20029;-72
2022/01/20 06:15:45;;;;;;;98.93;31.50;;;;;;;-0.73;61.29;100546.72;5005744;28;20026;-71
2022/01/20 06:18:11;;;;;;;168.73;44.27;;;;;;;-0.80;61.64;100534.94;4999468;28;20013;-73
2022/01/20 06:20:37;;;;;;;128.27;39.40;;;;;;;-0.45;60.90;100529.81;5011278;28;20031;-72
2022/01/20 06:23:05;;;;;;;115.53;36.83;;;;;;;-0.38;60.34;100518.22;5015990;28;20065;-73
2022/01/20 06:25:31;;;;;;;104.30;40.93;;;;;;;-0.15;59.84;100523.13;5019097;28;20033;-72
2022/01/20 06:27:56;;;;;;;80.70;31.87;;;;;;;0.04;59.46;100519.66;5002365;28;20331;-72
2022/01/20 06:30:22;;;;;;;107.57;43.10;;;;;;;0.11;59.64;100531.44;5023317;28;20339;-73
2022/01/20 06:32:47;;;;;;;91.60;35.20;;;;;;;0.15;59.64;100536.44;5018927;28;20033;-72
2022/01/20 06:35:13;;;;;;;71.27;28.20;;;;;;;-0.27;60.69;100533.31;5016888;28;20132;-72
2022/01/20 06:37:38;;;;;;;67.77;29.30;;;;;;;-0.22;61.27;100532.16;5017589;28;20030;-71
2022/01/20 06:40:06;;;;;;;103.07;38.43;;;;;;;-0.25;61.40;100518.44;5003594;28;20026;-73
2022/01/20 06:42:34;;;;;;;74.93;30.90;;;;;;;0.09;60.61;100543.69;5012575;28;20120;-73
2022/01/20 06:45:00;;;;;;;76.00;28.70;;;;;;;0.21;59.18;100527.47;4998616;28;20092;-72
2022/01/20 06:47:25;;;;;;;66.93;25.00;;;;;;;0.26;59.32;100526.31;5011451;28;20022;-73
2022/01/20 06:49:50;;;;;;;49.87;23.97;;;;;;;0.37;59.34;100530.13;5003058;28;20054;-73
2022/01/20 06:52:16;;;;;;;57.83;24.90;;;;;;;0.49;59.07;100534.72;5016948;28;20185;-71
2022/01/20 06:54:41;;;;;;;52.63;21.07;;;;;;;0.31;59.12;100520.88;5017225;28;20034;-71
2022/01/20 06:57:07;;;;;;;53.60;21.83;;;;;;;0.34;60.87;100528.53;5002219;28;20017;-72
2022/01/20 06:59:32;;;;;;;48.77;21.50;;;;;;;0.22;60.48;100529.16;5016563;28;20319;-72
2022/01/20 07:01:58;;;;;;;45.90;20.53;;;;;;;0.30;60.65;100533.03;5017077;28;20368;-71
2022/01/20 07:04:25;;;;;;;51.93;21.20;;;;;;;0.46;60.13;100524.44;5015478;28;20045;-71
2022/01/20 07:06:51;;;;;;;48.17;19.90;;;;;;;0.14;61.02;100523.47;5016653;28;20034;-72
2022/01/20 07:09:17;;;;;;;52.17;21.80;;;;;;;0.16;62.90;100532.91;5016508;28;20038;-73
2022/01/20 07:11:42;;;;;;;45.80;21.13;;;;;;;0.09;62.64;100544.53;5015635;28;20314;-73
2022/01/20 07:14:08;;;;;;;53.70;21.23;;;;;;;0.30;62.86;100535.66;5019378;28;20277;-71
2022/01/20 07:16:34;;;;;;;45.83;21.50;;;;;;;0.67;61.95;100553.75;5019971;28;20251;-71
2022/01/20 07:18:59;;;;;;;48.87;20.33;;;;;;;0.95;60.75;100541.81;5012941;28;20330;-72
2022/01/20 07:21:25;;;;;;;60.40;22.77;;;;;;;1.30;59.96;100541.69;5003442;28;20050;-73
2022/01/20 07:23:50;;;;;;;65.40;24.07;;;;;;;1.82;58.36;100529.19;5003560;28;20101;-73
2022/01/20 07:26:17;;;;;;;73.87;27.03;;;;;;;2.11;57.34;100511.88;4986914;28;20061;-71
2022/01/20 07:28:42;;;;;;;60.17;24.87;;;;;;;2.24;56.40;100510.22;4986573;28;20027;-71
2022/01/20 07:31:08;;;;;;;60.93;25.23;;;;;;;2.32;56.91;100501.09;5015870;28;20117;-73
2022/01/20 07:33:35;;;;;;;61.83;28.33;;;;;;;2.49;55.64;100506.16;5022748;28;20041;-73
2022/01/20 07:36:01;;;;;;;66.83;27.47;;;;;;;2.73;54.70;100480.28;5022714;28;20386;-73
2022/01/20 07:38:26;;;;;;;66.93;28.83;;;;;;;3.08;54.59;100499.03;5022616;28;20046;-71
2022/01/20 07:40:52;;;;;;;62.77;27.83;;;;;;;2.84;55.55;100493.53;5022173;28;20066;-72
2022/01/20 07:43:18;;;;;;;69.67;31.37;;;;;;;3.07;55.94;100497.34;5022653;28;20049;-73
2022/01/20 07:45:44;;;;;;;81.50;31.57;;;;;;;3.06;55.68;100499.13;5022634;28;20101;-73
2022/01/20 07:48:09;;;;;;;84.63;34.77;;;;;;;3.32;55.33;100494.03;5004414;28;20034;-73
2022/01/20 07:50:35;;;;;;;78.97;32.37;;;;;;;3.61;54.95;100486.94;5021114;28;20037;-73
2022/01/20 07:53:00;;;;;;;74.47;32.57;;;;;;;3.83;53.72;100479.34;5022300;28;20065;-71
2022/01/20 07:55:26;;;;;;;69.97;30.60;;;;;;;3.95;53.13;100498.66;5021974;28;20065;-72
2022/01/20 07:57:51;;;;;;;61.70;29.93;;;;;;;3.87;52.28;100493.09;5004482;28;20334;-73
2022/01/20 08:00:17;;;;;;;67.97;30.27;;;;;;;3.89;53.02;100494.66;5021239;28;20056;-74
2022/01/20 08:02:44;;;;;;;78.93;32.17;;;;;;;3.87;52.85;100496.53;5004117;28;20021;-73
2022/01/20 08:05:09;;;;;;;65.27;30.87;;;;;;;4.10;52.65;100500.25;5022176;28;20042;-72
2022/01/20 08:07:35;;;;;;;59.03;26.63;;;;;;;4.32;51.44;100510.19;5022305;28;20342;-72
2022/01/20 08:10:00;;;;;;;54.47;24.77;;;;;;;4.48;50.40;100508.19;5021836;28;20048;-72
2022/01/20 08:12:27;;;;;;;61.43;25.63;;;;;;;4.58;50.11;100516.28;5022058;28;20041;-72
2022/01/20 08:14:53;;;;;;;52.57;24.67;;;;;;;4.77;50.02;100496.53;5022082;28;20042;-73
2022/01/20 08:17:19;;;;;;;47.00;22.60;;;;;;;4.93;49.51;100490.22;5021732;28;20196;-73
2022/01/20 08:19:44;;;;;;;56.13;24.33;;;;;;;5.08;48.58;100494.38;5021917;28;20060;-74
2022/01/20 08:22:10;;;;;;;58.93;27.23;;;;;;;5.19;48.60;100480.50;5021736;28;20121;-73
2022/01/20 08:24:36;;;;;;;66.13;26.40;;;;;;;4.79;50.08;100491.19;5021470;28;20236;-73
2022/01/20 08:27:02;;;;;;;67.70;27.93;;;;;;;4.70;50.68;100486.56;5021597;28;20034;-72
2022/01/20 08:29:27;;;;;;;64.03;27.27;;;;;;;4.21;52.63;100484.69;5004289;28;20033;-73
2022/01/20 08:31:53;;;;;;;63.87;27.17;;;;;;;4.28;52.58;100492.97;5003441;28;20227;-73
2022/01/20 08:34:18;;;;;;;61.47;27.43;;;;;;;4.24;52.78;100491.50;5021844;28;20057;-73
2022/01/20 08:36:44;;;;;;;62.47;27.70;;;;;;;3.71;54.11;100485.41;5021831;28;20033;-73
2022/01/20 08:41:52;;;;;;;70.27;31.47;;;;;;;4.35;53.55;100487.22;5021701;28;20061;-73
2022/01/20 08:44:18;;;;;;;77.80;32.10;;;;;;;4.46;53.67;100479.44;5021690;28;20033;-72
2022/01/20 08:46:46;;;;;;;68.57;30.70;;;;;;;4.56;53.43;100476.19;5003615;28;20025;-73
2022/01/20 08:49:11;;;;;;;68.40;30.87;;;;;;;4.97;51.20;100478.53;5021288;28;20050;-73
2022/01/20 08:51:37;;;;;;;72.73;31.73;;;;;;;4.93;51.14;100474.47;5021448;28;20223;-73
2022/01/20 08:54:02;;;;;;;69.20;30.17;;;;;;;4.28;51.51;100464.13;5020755;28;20042;-72
2022/01/20 08:56:28;;;;;;;63.07;29.00;;;;;;;4.36;52.27;100467.06;5020847;28;20105;-73
2022/01/20 08:58:53;;;;;;;64.37;27.27;;;;;;;4.55;51.44;100475.34;5021365;28;20038;-73
2022/01/20 09:01:19;;;;;;;66.07;28.03;;;;;;;4.66;50.59;100472.81;5021268;28;20053;-73
2022/01/20 09:03:45;;;;;;;51.50;24.50;;;;;;;4.69;49.79;100477.88;5021120;28;20047;-73
2022/01/20 09:06:10;;;;;;;60.10;23.73;;;;;;;4.81;48.94;100477.00;5021500;28;20335;-73
2022/01/20 09:08:36;;;;;;;48.73;23.70;;;;;;;5.01;48.16;100480.84;5020518;28;20208;-73
2022/01/20 09:11:03;;;;;;;62.50;26.63;;;;;;;5.08;48.83;100491.75;5021282;28;20053;-73
2022/01/20 09:16:13;;;;;;;60.95;28.50;;;;;;;4.54;50.67;100481.53;5021044;28;20073;-72
2022/01/20 09:18:38;;;;;;;75.70;32.87;;;;;;;4.57;52.33;100480.50;5019280;28;20358;-73
2022/01/20 09:21:04;;;;;;;72.70;33.37;;;;;;;4.59;52.58;100463.72;5021488;28;20030;-73
2022/01/20 09:23:30;;;;;;;71.95;34.05;;;;;;;4.90;52.12;100479.94;5020861;28;20390;-75
2022/01/20 09:25:58;;;;;;;80.03;38.22;;;;;;;5.08;51.51;100463.72;5020976;28;20033;-73
2022/01/20 09:28:25;;;;;;;93.60;40.92;;;;;;;4.87;52.26;100452.13;5021376;28;20022;-73
2022/01/20 09:30:56;;;;;;;88.78;38.95;;;;;;;4.91;51.96;100468.47;5021106;28;20124;-73
2022/01/20 09:33:27;;;;;;;83.60;36.15;;;;;;;4.97;51.84;100447.06;5021070;28;20345;-73
2022/01/20 09:35:52;;;;;;;75.03;35.30;;;;;;;5.21;49.87;100450.56;5021039;28;20342;-73
2022/01/20 09:38:18;;;;;;;68.60;30.08;;;;;;;5.30;48.67;100442.03;5003669;28;20089;-72
2022/01/20 09:40:44;;;;;;;110.32;31.75;;;;;;;5.36;48.40;100428.47;5020806;28;20057;-73
2022/01/20 09:43:12;;;;;;;58.08;28.80;;;;;;;5.54;46.86;100433.31;5019626;28;20049;-73
2022/01/20 09:45:38;;;;;;;60.35;27.20;;;;;;;5.03;47.69;100430.88;5024486;28;20022;-73
2022/01/20 09:48:04;;;;;;;67.53;28.23;;;;;;;5.01;48.59;100419.66;5006534;28;20053;-73
2022/01/20 09:50:29;;;;;;;50.20;24.02;;;;;;;5.03;47.69;100409.88;5007057;28;20172;-74
2022/01/20 09:52:59;;;;;;;61.78;27.02;;;;;;;5.18;47.24;100405.31;5024154;28;20088;-73
2022/01/20 09:55:25;;;;;;;64.88;26.38;;;;;;;5.57;46.58;100391.88;5024851;28;20025;-73
2022/01/20 09:57:51;;;;;;;55.95;25.23;;;;;;;5.63;45.69;100403.72;5024599;28;20367;-73
2022/01/20 10:00:17;;;;;;;55.85;26.25;;;;;;;5.34;46.45;100398.00;5007132;28;20030;-72
2022/01/20 10:03:16;;;;;;;57.35;25.25;;;;;;;5.53;46.05;100387.81;5006904;28;20053;-73
2022/01/20 10:05:43;;;;;;;54.83;25.05;;;;;;;5.67;45.63;100386.78;5006973;28;20354;-73
2022/01/20 10:08:22;;;;;;;57.33;25.27;;;;;;;5.73;44.92;100379.28;5024317;28;20036;-73
2022/01/20 10:10:50;;;;;;;56.42;23.42;;;;;;;5.57;45.74;100368.25;5024324;28;20037;-73
2022/01/20 10:13:19;;;;;;;50.67;23.65;;;;;;;5.63;45.61;100359.06;5024459;28;20029;-72
2022/01/20 10:16:06;;;;;;;49.85;21.40;;;;;;;5.24;47.63;100357.63;5024208;28;20093;-72
2022/01/20 10:18:44;;;;;;;46.90;22.10;;;;;;;4.89;48.48;100345.25;5024436;28;20048;-72
2022/01/20 10:21:10;;;;;;;53.65;23.98;;;;;;;4.79;47.83;100341.63;5024198;28;20038;-73
2022/01/20 10:23:38;;;;;;;53.00;23.90;;;;;;;4.90;47.75;100331.19;5023801;28;20034;-73
2022/01/20 10:26:18;;;;;;;65.60;25.88;;;;;;;5.06;47.27;100347.50;5022663;28;20049;-73
2022/01/20 10:28:57;;;;;;;46.80;21.88;;;;;;;5.23;46.76;100343.66;5024230;28;20205;-72
2022/01/20 10:31:37;;;;;;;41.33;20.67;;;;;;;5.24;46.23;100328.75;5006266;28;20266;-73
2022/01/20 10:34:06;;;;;;;43.40;20.00;;;;;;;5.07;46.45;100322.06;5023815;28;20030;-73
2022/01/20 10:36:38;;;;;;;48.37;19.10;;;;;;;4.97;46.87;100319.28;5023776;28;20038;-74
2022/01/20 10:39:04;;;;;;;42.67;18.83;;;;;;;4.97;48.12;100319.28;5021450;28;20033;-73
2022/01/20 10:41:35;;;;;;;45.77;20.83;;;;;;;4.90;49.30;100318.06;4998038;28;20024;-73
2022/01/20 10:44:10;;;;;;;48.07;21.60;;;;;;;4.72;50.97;100307.13;5015157;28;20046;-72
2022/01/20 10:47:04;;;;;;;46.60;21.00;;;;;;;4.53;51.31;100301.53;5016042;28;20030;-73
2022/01/20 10:49:30;;;;;;;;;;;;;;;4.52;50.73;100291.16;4979031;28;20041;-72
2022/01/20 10:52:03;;;;;;;44.23;20.47;;;;;;;4.54;50.88;100273.53;5014533;28;19922;-72
2022/01/20 10:54:45;;;;;;;45.03;20.63;;;;;;;4.58;50.89;100262.69;5013929;28;20386;-73
2022/01/20 10:57:13;;;;;;;48.07;19.93;;;;;;;4.70;50.74;100272.28;5013258;28;20036;-73
2022/01/20 11:00:11;;;;;;;45.00;20.57;;;;;;;4.75;49.00;100258.84;5015403;28;20053;-73
2022/01/20 11:02:36;;;;;;;50.50;21.10;;;;;;;4.69;49.76;100257.50;5004846;28;20053;-73
2022/01/20 11:05:02;;;;;;;43.37;20.90;;;;;;;4.70;50.48;100243.44;5014432;28;20034;-73
2022/01/20 11:07:28;;;;;;;47.53;21.13;;;;;;;4.69;50.34;100246.19;5014424;28;20072;-73
2022/01/20 11:10:05;;;;;;;46.67;20.37;;;;;;;4.76;50.43;100243.00;5015392;28;20042;-72
2022/01/20 11:12:32;;;;;;;46.63;21.17;;;;;;;4.76;49.86;100244.78;5015249;28;20406;-73
2022/01/20 11:15:00;;;;;;;46.00;20.33;;;;;;;4.94;48.86;100253.91;5014006;28;20040;-73
2022/01/20 11:17:30;;;;;;;43.30;20.10;;;;;;;5.29;47.89;100247.84;5015755;28;20270;-73
2022/01/20 11:20:02;;;;;;;42.70;19.57;;;;;;;5.19;48.58;100237.16;5013624;28;20042;-73
2022/01/20 11:22:28;;;;;;;53.33;19.67;;;;;;;5.28;47.21;100243.53;5018108;28;20034;-73
2022/01/20 11:25:09;;;;;;;49.67;19.00;;;;;;;5.31;46.26;100235.44;4997367;28;20046;-73
2022/01/20 11:27:41;;;;;;;44.10;18.87;;;;;;;5.39;45.31;100231.28;4996914;28;20040;-72
2022/01/20 11:30:24;;;;;;;43.80;19.38;;;;;;;5.59;46.69;100231.53;5012841;28;20061;-72
2022/01/20 11:33:04;;;;;;;42.93;18.93;;;;;;;5.54;45.35;100226.63;5013034;28;20085;-73
2022/01/20 11:35:59;;;;;;;44.53;19.10;;;;;;;5.63;45.30;100209.31;5014821;28;20117;-73
2022/01/20 11:38:43;;;;;;;37.07;16.47;;;;;;;5.42;44.76;100199.50;4998666;28;20018;-72
2022/01/20 11:41:09;;;;;;;43.88;19.17;;;;;;;5.25;45.42;100210.47;5015347;28;20061;-73
2022/01/20 11:43:35;;;;;;;40.07;18.10;;;;;;;5.53;45.69;100209.19;4998909;28;20312;-74
2022/01/20 11:46:13;;;;;;;35.97;17.83;;;;;;;5.63;44.34;100183.03;5014870;28;20052;-73
2022/01/20 11:48:49;;;;;;;36.67;17.42;;;;;;;5.78;44.06;100193.19;5012965;28;20352;-72
2022/01/20 11:51:17;;;;;;;36.90;16.92;;;;;;;5.90;43.57;100186.16;5014315;28;20029;-72
2022/01/20 11:53:55;;;;;;;45.22;17.05;;;;;;;5.85;42.81;100176.94;5013296;28;20029;-73
2022/01/20 11:56:29;;;;;;;39.08;18.05;;;;;;;5.86;43.00;100194.38;5015157;28;20026;-73
2022/01/20 11:58:54;;;;;;;;;;;;;;;6.05;42.90;100192.00;5016252;28;20032;-72
2022/01/20 12:01:20;;;;;;;37.50;17.33;;;;;;;5.95;42.34;100188.44;4998474;28;20231;-72
2022/01/20 12:03:50;;;;;;;40.40;17.13;;;;;;;6.14;42.76;100180.75;5013236;28;20365;-72
2022/01/20 12:06:22;;;;;;;34.70;16.55;;;;;;;5.76;44.36;100181.13;5012253;28;20112;-72
2022/01/20 12:09:04;;;;;;;30.67;15.65;;;;;;;5.86;43.30;100182.06;5016600;28;20314;-73
2022/01/20 12:11:45;;;;;;;39.00;16.25;;;;;;;6.17;42.85;100174.41;5014313;28;20085;-73
2022/01/20 12:14:12;;;;;;;39.50;16.23;;;;;;;5.90;42.68;100169.56;5011517;28;20056;-73
2022/01/20 12:16:40;;;;;;;42.80;17.35;;;;;;;6.13;41.82;100170.34;5016305;28;20078;-73
2022/01/20 12:19:08;;;;;;;42.10;17.17;;;;;;;6.15;42.41;100165.81;5011348;28;20075;-72
2022/01/20 12:21:35;;;;;;;35.10;15.88;;;;;;;6.40;41.76;100165.50;5014232;28;20025;-72
2022/01/20 12:24:01;;;;;;;34.20;15.88;;;;;;;6.46;41.39;100158.91;5013782;28;20104;-73